Time;durP1;ratioP1;P1;durP2;ratioP2;P2;SDS_P1;SDS_P2;PMS_P1;PMS_P2;Temp;Humidity;BMP_temperature;BMP_pressure;BME280_temperature;BME280_humidity;BME280_pressure;Samples;Min_cycle;Max_cycle;Signal;HPM_P1;HPM_P2
2024/04/13 00:01:40;;;;;;;672.08;152.90;;;18.10;41.60;;;;;;5461184;25;20083;-67
2024/04/13 00:04:09;;;;;;;549.05;149.00;;;18.10;41.70;;;;;;5465769;25;20017;-63
2024/04/13 00:06:43;;;;;;;518.45;131.55;;;18.00;41.60;;;;;;5476928;25;20013;-65
2024/04/13 00:09:12;;;;;;;528.38;112.10;;;18.00;41.80;;;;;;5474541;25;20012;-68
2024/04/13 00:11:43;;;;;;;702.35;173.40;;;18.00;41.70;;;;;;5425856;25;20584;-62
2024/04/13 00:14:11;;;;;;;517.15;106.75;;;18.00;41.90;;;;;;5470071;25;20005;-64
2024/04/13 00:16:42;;;;;;;521.17;106.80;;;17.90;41.90;;;;;;5434963;26;20052;-68
2024/04/13 00:19:11;;;;;;;536.53;109.45;;;17.90;42.20;;;;;;5442247;26;20090;-68
2024/04/13 00:21:45;;;;;;;719.47;176.93;;;17.80;42.30;;;;;;5406287;26;20042;-66
2024/04/13 00:24:13;;;;;;;516.85;110.65;;;17.80;42.40;;;;;;5441493;26;20815;-66
2024/04/13 00:26:44;;;;;;;522.15;103.72;;;17.80;42.30;;;;;;5442811;26;20014;-67
2024/04/13 00:29:13;;;;;;;518.95;102.35;;;17.80;42.40;;;;;;5445367;26;20019;-65
2024/04/13 00:31:44;;;;;;;694.88;183.10;;;17.80;43.20;;;;;;5436240;26;20021;-69
2024/04/13 00:34:12;;;;;;;526.75;104.40;;;17.80;42.70;;;;;;5438043;25;20018;-66
2024/04/13 00:36:46;;;;;;;523.20;102.72;;;17.80;43.20;;;;;;5420595;26;20475;-67
2024/04/13 00:39:15;;;;;;;509.30;103.40;;;17.70;42.70;;;;;;5452707;26;20010;-66
2024/04/13 00:41:46;;;;;;;731.47;187.98;;;17.80;43.20;;;;;;5458999;25;20038;-64
2024/04/13 00:44:14;;;;;;;514.30;102.55;;;17.80;42.60;;;;;;5432519;25;20009;-66
2024/04/13 00:46:45;;;;;;;506.23;100.93;;;17.70;42.60;;;;;;5472416;25;20532;-69
2024/04/13 00:49:19;;;;;;;551.90;110.45;;;17.70;42.60;;;;;;5475670;25;19997;-63
2024/04/13 00:51:56;;;;;;;729.40;184.68;;;17.70;42.60;;;;;;5463862;25;20009;-65
2024/04/13 00:54:27;;;;;;;538.97;106.63;;;17.70;42.60;;;;;;5433076;26;20912;-64
2024/04/13 00:56:58;;;;;;;553.47;116.40;;;17.80;42.60;;;;;;5437761;25;20021;-64
2024/04/13 00:59:27;;;;;;;538.63;158.85;;;17.80;42.60;;;;;;5443469;25;20006;-63
2024/04/13 01:01:59;;;;;;;590.97;175.35;;;17.80;42.50;;;;;;5433486;25;21640;-66
2024/04/13 01:04:28;;;;;;;532.17;125.47;;;17.80;42.50;;;;;;5409321;25;21506;-65
2024/04/13 01:07:03;;;;;;;536.15;145.38;;;17.70;42.60;;;;;;5437107;26;20740;-66
2024/04/13 01:09:32;;;;;;;541.22;107.68;;;17.70;42.60;;;;;;5437741;26;20002;-63
2024/04/13 01:12:05;;;;;;;571.83;117.55;;;17.70;42.50;;;;;;5444517;26;20033;-63
2024/04/13 01:14:35;;;;;;;532.38;109.15;;;17.70;42.60;;;;;;5442834;26;20005;-67
2024/04/13 01:17:06;;;;;;;524.20;105.78;;;17.60;42.80;;;;;;5438013;26;20007;-63
2024/04/13 01:19:35;;;;;;;634.97;139.77;;;17.60;42.70;;;;;;5440082;26;20790;-64
2024/04/13 01:22:10;;;;;;;513.50;99.20;;;17.60;42.80;;;;;;5419473;26;20019;-65
2024/04/13 01:24:42;;;;;;;529.37;106.43;;;17.60;42.70;;;;;;5439563;26;20467;-65
2024/04/13 01:27:14;;;;;;;525.83;102.97;;;17.60;42.60;;;;;;5443519;26;20277;-67
2024/04/13 01:29:43;;;;;;;696.30;181.75;;;17.60;42.60;;;;;;5433700;26;20006;-67
2024/04/13 01:32:14;;;;;;;525.40;104.80;;;17.60;42.60;;;;;;5443390;26;20021;-64
2024/04/13 01:34:42;;;;;;;537.78;108.97;;;17.60;42.70;;;;;;5439727;26;21186;-63
2024/04/13 01:37:13;;;;;;;507.92;104.80;;;17.60;42.80;;;;;;5455102;26;20021;-67
2024/04/13 01:39:44;;;;;;;740.20;191.82;;;17.60;42.70;;;;;;5458579;25;20005;-69
2024/04/13 01:42:15;;;;;;;514.80;99.47;;;17.60;42.70;;;;;;5469410;25;20029;-65
2024/04/13 01:44:43;;;;;;;524.00;102.50;;;17.70;43.10;;;;;;5463306;25;20018;-64
2024/04/13 01:47:17;;;;;;;530.45;104.43;;;17.60;42.70;;;;;;5467094;25;20050;-64
2024/04/13 01:49:45;;;;;;;717.70;173.13;;;17.60;42.80;;;;;;5414531;26;20069;-67
2024/04/13 01:52:16;;;;;;;522.97;101.70;;;17.60;42.90;;;;;;5470899;25;20010;-64
2024/04/13 01:54:46;;;;;;;514.95;99.68;;;17.70;42.90;;;;;;5465636;25;20032;-70
2024/04/13 01:57:17;;;;;;;546.83;107.28;;;17.60;43.00;;;;;;5470712;25;20013;-67
2024/04/13 01:59:46;;;;;;;713.38;177.45;;;17.70;43.00;;;;;;5452709;25;20459;-68
2024/04/13 02:02:17;;;;;;;511.33;97.60;;;17.70;43.00;;;;;;5472810;25;20045;-67
2024/04/13 02:04:45;;;;;;;628.25;135.00;;;17.70;43.10;;;;;;5449686;26;20013;-66
2024/04/13 02:07:16;;;;;;;498.40;93.82;;;17.70;43.20;;;;;;5442959;25;20018;-66
2024/04/13 02:09:47;;;;;;;704.15;172.38;;;17.70;43.20;;;;;;5431763;26;20014;-68
2024/04/13 02:12:18;;;;;;;507.15;96.75;;;17.70;43.20;;;;;;5438872;25;20010;-68
2024/04/13 02:14:46;;;;;;;629.92;132.13;;;17.70;43.30;;;;;;5433720;26;20026;-67
2024/04/13 02:17:17;;;;;;;527.35;100.47;;;17.70;43.20;;;;;;5436843;26;20010;-68
2024/04/13 02:19:47;;;;;;;710.22;176.52;;;17.70;43.40;;;;;;5430402;26;20014;-63
2024/04/13 02:22:18;;;;;;;520.58;100.00;;;17.70;43.40;;;;;;5443363;26;20495;-63
2024/04/13 02:24:50;;;;;;;571.33;116.40;;;17.70;43.40;;;;;;5436226;26;20376;-64
2024/04/13 02:27:21;;;;;;;527.13;102.35;;;17.70;43.60;;;;;;5447424;26;20086;-70
2024/04/13 02:29:50;;;;;;;703.55;178.80;;;17.70;43.50;;;;;;5432353;26;20060;-68
2024/04/13 02:32:21;;;;;;;533.78;107.35;;;17.70;43.40;;;;;;5457389;26;20290;-69
2024/04/13 02:34:49;;;;;;;507.60;97.93;;;17.70;43.40;;;;;;5446952;26;22046;-68
2024/04/13 02:37:19;;;;;;;547.17;106.35;;;17.70;43.40;;;;;;5468058;25;20002;-66
2024/04/13 02:39:50;;;;;;;684.92;171.32;;;17.70;43.30;;;;;;5474522;25;20877;-69
2024/04/13 02:42:21;;;;;;;502.10;97.05;;;17.80;43.30;;;;;;5475423;25;20082;-67
2024/04/13 02:44:49;;;;;;;518.15;98.45;;;17.80;43.20;;;;;;5451003;26;20021;-63
2024/04/13 02:47:19;;;;;;;535.20;102.72;;;17.80;43.20;;;;;;5452967;25;20009;-62
2024/04/13 02:49:47;;;;;;;701.60;172.93;;;17.80;43.20;;;;;;5468563;25;20553;-64
2024/04/13 02:52:20;;;;;;;552.15;110.20;;;17.80;43.20;;;;;;5470910;25;20027;-66
2024/04/13 02:54:50;;;;;;;496.27;93.68;;;17.80;43.30;;;;;;5478339;25;20001;-67
2024/04/13 02:57:21;;;;;;;534.17;102.85;;;17.70;43.90;;;;;;5462768;25;20351;-68
2024/04/13 02:59:49;;;;;;;685.50;167.18;;;17.70;43.30;;;;;;5426662;26;20030;-63
2024/04/13 03:02:21;;;;;;;504.48;96.13;;;17.70;43.40;;;;;;5441321;25;19999;-65
2024/04/13 03:04:50;;;;;;;523.88;100.07;;;17.60;43.30;;;;;;5447125;26;20002;-63
2024/04/13 03:07:21;;;;;;;512.08;98.40;;;17.60;43.40;;;;;;5448522;26;20090;-65
2024/04/13 03:09:53;;;;;;;710.78;174.68;;;17.60;43.40;;;;;;5406683;26;20017;-63
2024/04/13 03:12:24;;;;;;;525.45;104.75;;;17.60;43.40;;;;;;5441022;26;20002;-64
2024/04/13 03:14:52;;;;;;;513.83;99.63;;;17.60;43.50;;;;;;5419414;26;19999;-63
2024/04/13 03:17:23;;;;;;;504.77;100.50;;;17.60;43.50;;;;;;5450816;26;20006;-67
2024/04/13 03:19:51;;;;;;;595.70;133.30;;;17.50;43.60;;;;;;5441953;25;20008;-64
2024/04/13 03:22:22;;;;;;;532.38;102.70;;;17.60;43.60;;;;;;5453971;26;20231;-63
2024/04/13 03:24:53;;;;;;;513.80;100.13;;;17.60;43.60;;;;;;5468309;25;20039;-65
2024/04/13 03:27:24;;;;;;;506.42;100.53;;;17.60;43.60;;;;;;5472715;25;20019;-67
2024/04/13 03:29:52;;;;;;;561.25;123.95;;;17.60;43.60;;;;;;5446175;25;20358;-66
2024/04/13 03:32:23;;;;;;;516.58;102.72;;;17.60;43.60;;;;;;5468496;26;20120;-65
2024/04/13 03:34:51;;;;;;;522.28;100.47;;;17.50;43.60;;;;;;5474547;25;20505;-64
2024/04/13 03:37:22;;;;;;;622.15;135.60;;;17.60;43.60;;;;;;5476517;25;20183;-65
2024/04/13 03:39:56;;;;;;;599.05;141.07;;;17.60;43.60;;;;;;5471299;25;20005;-63
2024/04/13 03:42:27;;;;;;;547.90;106.78;;;17.60;43.60;;;;;;5442546;26;20074;-64
2024/04/13 03:44:55;;;;;;;585.75;120.45;;;17.50;43.50;;;;;;5465856;25;19998;-64
2024/04/13 03:47:26;;;;;;;531.22;106.57;;;17.60;43.60;;;;;;5444563;26;20445;-69
2024/04/13 03:49:55;;;;;;;648.85;149.05;;;17.50;43.70;;;;;;5430884;26;20957;-64
2024/04/13 03:52:26;;;;;;;500.88;96.28;;;17.50;43.70;;;;;;5481597;25;19997;-68
2024/04/13 03:54:56;;;;;;;516.22;100.43;;;17.50;43.70;;;;;;5472722;25;20005;-64
2024/04/13 03:57:27;;;;;;;517.03;98.05;;;17.50;43.70;;;;;;5479654;25;20010;-64
2024/04/13 03:59:55;;;;;;;529.60;103.40;;;17.50;43.60;;;;;;5422718;26;20843;-63
2024/04/13 04:02:26;;;;;;;529.15;106.25;;;17.50;43.60;;;;;;5472775;25;20522;-66
2024/04/13 04:04:54;;;;;;;528.38;102.13;;;17.50;43.70;;;;;;5469560;25;20125;-67
2024/04/13 04:07:25;;;;;;;530.13;104.28;;;17.50;43.60;;;;;;5443764;26;20006;-68
2024/04/13 04:10:00;;;;;;;549.60;126.25;;;17.50;43.60;;;;;;5431474;25;20006;-66
2024/04/13 04:12:28;;;;;;;559.20;112.85;;;17.50;43.70;;;;;;5433697;26;20023;-66
2024/04/13 04:14:59;;;;;;;546.25;108.15;;;17.50;43.80;;;;;;5470922;25;20406;-63
2024/04/13 04:17:27;;;;;;;568.55;117.18;;;17.40;43.70;;;;;;5463684;25;20465;-64
2024/04/13 04:19:58;;;;;;;507.33;100.63;;;17.40;43.80;;;;;;5471890;25;21649;-68
2024/04/13 04:22:26;;;;;;;560.25;108.35;;;17.30;43.80;;;;;;5460520;26;20020;-65
2024/04/13 04:25:00;;;;;;;526.20;101.32;;;17.30;44.10;;;;;;5443784;26;20002;-64
2024/04/13 04:27:28;;;;;;;519.95;105.47;;;17.30;43.80;;;;;;5452460;25;20017;-68
2024/04/13 04:29:59;;;;;;;522.95;103.70;;;17.30;43.80;;;;;;5440118;25;21617;-66
2024/04/13 04:32:27;;;;;;;533.45;106.10;;;17.30;43.80;;;;;;5420489;26;20014;-65
2024/04/13 04:34:57;;;;;;;529.10;108.32;;;17.30;43.80;;;;;;5414265;26;20357;-65
2024/04/13 04:37:26;;;;;;;552.00;114.00;;;17.30;43.80;;;;;;5441584;26;20010;-67
2024/04/13 04:40:00;;;;;;;522.90;117.53;;;17.30;43.80;;;;;;5438140;26;19998;-66
2024/04/13 04:42:28;;;;;;;517.42;98.30;;;17.30;43.90;;;;;;5447026;25;20043;-66
2024/04/13 04:44:59;;;;;;;551.90;109.55;;;17.30;44.00;;;;;;5441750;26;20002;-64
2024/04/13 04:47:27;;;;;;;526.83;105.07;;;17.30;44.00;;;;;;5449905;26;20027;-67
2024/04/13 04:49:58;;;;;;;571.88;120.55;;;17.30;44.20;;;;;;5431476;26;21691;-67
2024/04/13 04:52:27;;;;;;;517.50;103.38;;;17.40;44.00;;;;;;5439298;26;20076;-66
2024/04/13 04:55:01;;;;;;;576.17;119.80;;;17.40;43.90;;;;;;5442154;26;19999;-63
2024/04/13 04:57:30;;;;;;;525.23;103.07;;;17.40;43.90;;;;;;5444190;26;20014;-63
2024/04/13 05:00:01;;;;;;;520.05;102.55;;;17.40;43.90;;;;;;5442984;25;20713;-62
2024/04/13 05:02:29;;;;;;;512.17;102.88;;;17.40;43.80;;;;;;5445937;26;21072;-62
2024/04/13 05:05:00;;;;;;;519.35;99.10;;;17.50;43.90;;;;;;5444882;26;20046;-69
2024/04/13 05:07:28;;;;;;;563.38;133.43;;;17.50;43.90;;;;;;5441037;26;20045;-65
2024/04/13 05:10:02;;;;;;;514.55;114.95;;;17.50;44.00;;;;;;5437850;26;20074;-64
2024/04/13 05:12:30;;;;;;;562.03;117.85;;;17.50;44.00;;;;;;5418133;26;20008;-67
2024/04/13 05:15:01;;;;;;;560.08;115.97;;;17.50;44.00;;;;;;5406996;26;20014;-63
2024/04/13 05:17:29;;;;;;;565.03;140.68;;;17.50;44.10;;;;;;5443210;26;20014;-63
2024/04/13 05:20:00;;;;;;;523.22;103.50;;;17.50;44.70;;;;;;5438952;26;20026;-62
2024/04/13 05:22:28;;;;;;;515.33;109.90;;;17.50;44.10;;;;;;5430056;26;19998;-65
2024/04/13 05:25:02;;;;;;;520.42;106.03;;;17.60;44.10;;;;;;5449771;25;20465;-64
2024/04/13 05:27:30;;;;;;;556.90;119.38;;;17.70;44.00;;;;;;5468686;25;20009;-66
2024/04/13 05:30:04;;;;;;;509.48;116.45;;;17.70;44.00;;;;;;5430448;25;21218;-64
2024/04/13 05:32:33;;;;;;;574.20;119.15;;;17.80;44.00;;;;;;5457166;25;20013;-63
2024/04/13 05:35:04;;;;;;;555.67;119.95;;;17.90;44.00;;;;;;5465742;25;20013;-65
2024/04/13 05:37:32;;;;;;;551.20;113.35;;;17.90;44.00;;;;;;5462665;25;20046;-63
2024/04/13 05:40:07;;;;;;;568.30;117.82;;;17.90;44.00;;;;;;5414723;25;20078;-68
2024/04/13 05:42:35;;;;;;;520.70;102.05;;;18.00;44.10;;;;;;5412643;26;20014;-68
2024/04/13 05:45:06;;;;;;;595.38;141.73;;;18.00;44.00;;;;;;5443256;26;20043;-65
2024/04/13 05:47:36;;;;;;;614.60;139.20;;;18.00;43.90;;;;;;5437034;26;20029;-64
2024/04/13 05:50:07;;;;;;;533.55;120.97;;;18.00;44.20;;;;;;5415036;26;20013;-65
2024/04/13 05:52:36;;;;;;;545.38;122.03;;;18.10;44.10;;;;;;5443984;26;20020;-66
2024/04/13 05:55:09;;;;;;;531.03;107.60;;;18.10;44.10;;;;;;5441261;26;20049;-66
2024/04/13 05:57:37;;;;;;;725.30;179.07;;;18.20;44.20;;;;;;5433894;26;20002;-68
2024/04/13 06:00:10;;;;;;;511.48;105.88;;;18.30;44.10;;;;;;5437277;25;20033;-68
2024/04/13 06:02:38;;;;;;;513.85;103.43;;;18.30;44.10;;;;;;5447500;26;20009;-66
2024/04/13 06:05:09;;;;;;;510.52;100.63;;;18.40;44.10;;;;;;5414792;26;20012;-66
2024/04/13 06:07:37;;;;;;;767.38;199.93;;;18.50;44.20;;;;;;5433568;26;20046;-65
2024/04/13 06:10:11;;;;;;;511.77;107.05;;;18.50;44.00;;;;;;5445554;25;20849;-63
2024/04/13 06:12:39;;;;;;;563.28;121.90;;;18.60;44.30;;;;;;5441646;26;20014;-66
2024/04/13 06:15:10;;;;;;;537.35;118.43;;;18.70;44.00;;;;;;5444325;26;19998;-62
2024/04/13 06:17:38;;;;;;;685.80;173.52;;;18.70;44.00;;;;;;5439371;25;20010;-67
2024/04/13 06:20:11;;;;;;;621.95;143.82;;;18.80;44.00;;;;;;5435028;25;20001;-64
2024/04/13 06:22:39;;;;;;;536.60;131.82;;;18.90;44.10;;;;;;5466337;25;20002;-70
2024/04/13 06:25:13;;;;;;;517.13;111.85;;;19.00;44.00;;;;;;5475415;25;20058;-64
2024/04/13 06:27:41;;;;;;;819.35;221.85;;;19.00;44.00;;;;;;5416841;25;19998;-64
2024/04/13 06:30:13;;;;;;;522.80;106.90;;;19.10;43.90;;;;;;5476378;25;20005;-63
2024/04/13 06:32:41;;;;;;;546.80;120.68;;;19.20;43.90;;;;;;5467688;25;20099;-63
2024/04/13 06:35:12;;;;;;;537.05;116.40;;;19.30;43.90;;;;;;5472824;25;20010;-65
2024/04/13 06:37:40;;;;;;;710.08;183.13;;;19.40;44.00;;;;;;5463143;25;20013;-65
2024/04/13 06:40:14;;;;;;;591.10;139.93;;;19.50;43.90;;;;;;5470409;25;19998;-64
2024/04/13 06:42:42;;;;;;;532.22;116.93;;;19.60;44.00;;;;;;5470679;26;20024;-66
2024/04/13 06:45:13;;;;;;;509.17;105.38;;;19.70;43.90;;;;;;5441073;25;20832;-66
2024/04/13 06:47:41;;;;;;;680.58;179.40;;;19.90;43.90;;;;;;5442372;25;20013;-67
2024/04/13 06:50:12;;;;;;;514.05;113.90;;;20.00;43.70;;;;;;5444235;26;20110;-65
2024/04/13 06:52:40;;;;;;;565.72;119.97;;;20.20;43.60;;;;;;5439752;25;20087;-64
2024/04/13 06:55:13;;;;;;;538.80;117.78;;;20.30;43.50;;;;;;5442246;26;20018;-66
2024/04/13 06:57:41;;;;;;;702.00;188.45;;;20.40;43.40;;;;;;5433244;26;20472;-65
2024/04/13 07:00:13;;;;;;;537.28;115.82;;;20.50;43.40;;;;;;5440699;26;20003;-68
2024/04/13 07:02:44;;;;;;;546.17;118.18;;;20.60;43.30;;;;;;5408933;26;19998;-63
2024/04/13 07:05:15;;;;;;;544.55;118.00;;;20.80;43.40;;;;;;5453054;25;20016;-64
2024/04/13 07:07:43;;;;;;;757.22;216.70;;;20.90;43.90;;;;;;5401043;26;20011;-65
2024/04/13 07:10:16;;;;;;;530.75;118.18;;;21.00;43.60;;;;;;5449024;26;20002;-63
2024/04/13 07:12:45;;;;;;;608.13;139.43;;;21.20;43.20;;;;;;5442122;26;19998;-65
2024/04/13 07:15:16;;;;;;;528.15;120.38;;;21.30;43.10;;;;;;5449587;26;20069;-65
2024/04/13 07:17:44;;;;;;;764.53;210.73;;;21.60;43.40;;;;;;5409452;26;20002;-65
2024/04/13 07:20:20;;;;;;;536.33;135.85;;;22.40;44.10;;;;;;5450953;26;20326;-66
2024/04/13 07:22:48;;;;;;;585.83;160.55;;;24.40;44.90;;;;;;5442721;26;20025;-68
2024/04/13 07:25:22;;;;;;;545.03;161.10;;;26.60;43.20;;;;;;5420200;26;20009;-66
2024/04/13 07:27:50;;;;;;;662.63;229.35;;;28.00;41.60;;;;;;5439786;26;20480;-69
2024/04/13 07:30:21;;;;;;;570.00;197.85;;;29.70;40.70;;;;;;5443000;26;20018;-65
2024/04/13 07:32:49;;;;;;;585.95;216.75;;;31.00;39.60;;;;;;5445704;25;20002;-71
2024/04/13 07:35:20;;;;;;;567.10;226.75;;;32.20;38.70;;;;;;5447960;26;20002;-65
2024/04/13 07:37:48;;;;;;;773.65;338.05;;;33.10;37.90;;;;;;5431803;26;20010;-66
2024/04/13 07:40:21;;;;;;;578.95;247.98;;;34.00;37.10;;;;;;5444418;26;21781;-66
2024/04/13 07:42:50;;;;;;;593.65;278.80;;;34.50;36.50;;;;;;5451500;25;20563;-70
2024/04/13 07:45:21;;;;;;;609.22;290.50;;;35.00;36.10;;;;;;5441368;26;20066;-71
2024/04/13 07:47:49;;;;;;;799.63;374.88;;;35.10;35.60;;;;;;5407044;25;20013;-72
2024/04/13 07:50:20;;;;;;;573.22;290.02;;;35.40;35.30;;;;;;5442349;26;20055;-73
2024/04/13 07:52:51;;;;;;;628.35;317.88;;;35.70;35.10;;;;;;5450790;26;20002;-70
2024/04/13 07:55:21;;;;;;;579.78;304.38;;;35.90;34.80;;;;;;5472615;25;20020;-68
2024/04/13 07:57:53;;;;;;;739.10;385.42;;;36.20;34.60;;;;;;5468953;25;20002;-70
2024/04/13 08:00:21;;;;;;;584.47;325.38;;;36.30;34.10;;;;;;5451592;26;19993;-73
2024/04/13 08:02:52;;;;;;;618.42;339.75;;;36.50;34.00;;;;;;5441323;26;20006;-69
2024/04/13 08:05:20;;;;;;;585.38;319.02;;;36.70;33.80;;;;;;5476995;25;20016;-71
2024/04/13 08:07:51;;;;;;;755.58;400.33;;;36.40;33.80;;;;;;5459539;25;20082;-67
2024/04/13 08:10:22;;;;;;;622.10;342.85;;;36.20;34.00;;;;;;5471225;25;20028;-66
2024/04/13 08:12:53;;;;;;;582.63;332.90;;;36.40;33.80;;;;;;5446078;26;20771;-69
2024/04/13 08:15:21;;;;;;;631.10;358.00;;;37.00;33.70;;;;;;5434702;26;20021;-74
2024/04/13 08:17:52;;;;;;;773.00;447.70;;;37.80;33.40;;;;;;5461527;25;20033;-69
2024/04/13 08:20:20;;;;;;;579.80;351.40;;;38.60;32.70;;;;;;5443321;25;20077;-71
2024/04/13 08:22:51;;;;;;;604.78;384.58;;;39.20;32.00;;;;;;5463791;25;20046;-73
2024/04/13 08:25:23;;;;;;;603.10;398.98;;;39.70;31.70;;;;;;5442604;26;20099;-73
2024/04/13 08:27:54;;;;;;;699.70;458.83;;;40.90;31.50;;;;;;5433952;26;20515;-71
2024/04/13 08:30:23;;;;;;;618.20;438.40;;;42.00;30.90;;;;;;5475466;25;20009;-74
2024/04/13 08:32:54;;;;;;;592.95;453.70;;;43.10;30.10;;;;;;5447460;26;20020;-74
2024/04/13 08:35:26;;;;;;;607.38;467.88;;;43.90;29.70;;;;;;5436349;26;20393;-71
2024/04/13 08:37:57;;;;;;;631.95;499.00;;;44.70;29.20;;;;;;5432430;25;20001;-72
2024/04/13 08:40:28;;;;;;;619.65;489.83;;;45.40;28.90;;;;;;5471206;25;20117;-76
2024/04/13 08:43:14;;;;;;;625.85;544.70;;;46.20;28.50;;;;;;5476002;25;20013;-71
2024/04/13 08:45:43;;;;;;;744.47;563.58;;;46.50;28.00;;;;;;5466291;25;19993;-72
2024/04/13 08:48:15;;;;;;;610.53;542.53;;;46.80;27.90;;;;;;5480764;25;20831;-72
2024/04/13 08:50:44;;;;;;;649.42;580.30;;;47.30;27.70;;;;;;5436656;26;20033;-73
2024/04/13 08:53:17;;;;;;;649.08;578.58;;;47.70;27.30;;;;;;5422432;26;20030;-72
2024/04/13 08:55:53;;;;;;;763.75;606.15;;;47.60;27.00;;;;;;5445588;26;20039;-76
2024/04/13 08:58:25;;;;;;;626.72;557.60;;;47.70;27.10;;;;;;5453745;26;20083;-77
2024/04/13 09:00:59;;;;;;;629.67;560.95;;;47.90;26.90;;;;;;5445568;26;20605;-75
2024/04/13 09:03:31;;;;;;;635.08;566.45;;;48.30;26.80;;;;;;5452555;26;20049;-75
2024/04/13 09:05:59;;;;;;;662.22;586.38;;;48.60;26.60;;;;;;5435011;26;20006;-75
2024/04/13 09:08:33;;;;;;;682.60;608.28;;;48.70;26.10;;;;;;5424068;26;20041;-73
2024/04/13 09:11:08;;;;;;;643.20;575.35;;;48.60;26.10;;;;;;5449910;26;20021;-74
2024/04/13 09:13:40;;;;;;;787.03;620.60;;;48.10;26.00;;;;;;5434356;26;20016;-75
2024/04/13 09:16:09;;;;;;;632.70;563.53;;;47.70;26.50;;;;;;5451209;26;20020;-74
2024/04/13 09:18:43;;;;;;;639.67;568.90;;;47.70;26.10;;;;;;5457261;26;20062;-74
2024/04/13 09:21:13;;;;;;;620.92;552.95;;;47.70;25.70;;;;;;5423916;26;20006;-71
2024/04/13 09:23:46;;;;;;;782.25;603.42;;;47.20;25.60;;;;;;5440437;25;20409;-73
2024/04/13 09:26:17;;;;;;;640.03;544.20;;;46.70;25.70;;;;;;5427230;26;20017;-73
2024/04/13 09:28:49;;;;;;;683.58;559.88;;;46.80;25.90;;;;;;5454434;26;20021;-73
2024/04/13 09:31:18;;;;;;;617.15;527.80;;;46.90;25.70;;;;;;5450827;26;20021;-70
2024/04/13 09:33:50;;;;;;;768.95;581.35;;;46.80;25.40;;;;;;5444049;26;20066;-74
2024/04/13 09:36:23;;;;;;;617.33;523.20;;;46.80;25.30;;;;;;5446124;26;20057;-71
2024/04/13 09:38:55;;;;;;;639.15;544.65;;;46.70;25.30;;;;;;5423708;26;20002;-72
2024/04/13 09:41:27;;;;;;;619.38;544.42;;;46.90;25.40;;;;;;5414409;26;21797;-70
2024/04/13 09:43:58;;;;;;;622.47;526.08;;;46.80;25.20;;;;;;5402263;26;21783;-71
2024/04/13 09:46:27;;;;;;;628.90;535.22;;;46.50;25.30;;;;;;5418414;26;20000;-74
2024/04/13 09:48:58;;;;;;;616.15;518.55;;;46.20;25.30;;;;;;5415566;26;20010;-76
2024/04/13 09:51:28;;;;;;;638.35;523.20;;;46.30;25.40;;;;;;5414025;26;20026;-72
2024/04/13 09:54:00;;;;;;;613.10;522.25;;;46.70;25.30;;;;;;5409583;26;20611;-72
2024/04/13 09:56:31;;;;;;;656.60;535.72;;;47.30;25.00;;;;;;5410399;26;20018;-71
2024/04/13 09:59:03;;;;;;;616.55;526.88;;;47.60;24.60;;;;;;5415660;26;20014;-72
2024/04/13 10:01:32;;;;;;;623.08;553.28;;;47.70;24.20;;;;;;5435858;26;20003;-73
2024/04/13 10:04:04;;;;;;;661.50;589.28;;;47.70;24.20;;;;;;5411415;26;20384;-72
2024/04/13 10:06:34;;;;;;;665.78;593.15;;;48.10;24.10;;;;;;5410009;26;20138;-72
2024/04/13 10:09:08;;;;;;;649.78;578.28;;;48.50;23.80;;;;;;5409229;26;20027;-75
2024/04/13 10:11:43;;;;;;;778.83;609.55;;;48.60;23.50;;;;;;5408758;26;20006;-70
2024/04/13 10:14:17;;;;;;;626.28;557.15;;;48.60;23.20;;;;;;5416144;26;20003;-75
2024/04/13 10:16:47;;;;;;;723.85;584.75;;;48.50;23.10;;;;;;5409085;26;20021;-70
2024/04/13 10:19:19;;;;;;;616.15;545.25;;;48.20;22.90;;;;;;5420697;26;20079;-72
2024/04/13 10:21:49;;;;;;;804.72;609.50;;;47.70;23.00;;;;;;5404029;26;20006;-72
2024/04/13 10:24:20;;;;;;;620.03;546.22;;;47.80;23.10;;;;;;5414918;26;20027;-73
2024/04/13 10:26:51;;;;;;;620.50;523.00;;;47.50;22.90;;;;;;5410133;26;20061;-69
2024/04/13 10:29:28;;;;;;;637.70;523.97;;;47.30;22.90;;;;;;5410429;26;20493;-71
2024/04/13 10:31:57;;;;;;;640.20;523.65;;;47.10;22.80;;;;;;5413928;25;20074;-71
2024/04/13 10:34:28;;;;;;;614.83;519.63;;;47.10;22.90;;;;;;5434657;25;20028;-74
2024/04/13 10:36:57;;;;;;;627.97;511.85;;;47.20;22.80;;;;;;5423730;26;20070;-73
2024/04/13 10:39:28;;;;;;;625.00;515.03;;;47.10;22.50;;;;;;5419070;25;20018;-73
2024/04/13 10:42:10;;;;;;;677.47;532.90;;;47.00;22.60;;;;;;5443608;25;20983;-70
2024/04/13 10:44:42;;;;;;;627.42;517.75;;;47.10;22.40;;;;;;5467654;25;20014;-73
2024/04/13 10:47:10;;;;;;;629.42;519.97;;;47.30;22.40;;;;;;5475182;25;20010;-71
2024/04/13 10:49:43;;;;;;;769.95;560.58;;;47.30;22.10;;;;;;5427414;26;20086;-71
2024/04/13 10:52:25;;;;;;;630.80;517.75;;;47.20;22.00;;;;;;5437807;25;20489;-72
2024/04/13 10:54:59;;;;;;;677.83;529.67;;;47.00;22.00;;;;;;5472364;25;20065;-71
2024/04/13 10:57:35;;;;;;;656.78;513.50;;;46.70;21.90;;;;;;5444136;26;19998;-72
2024/04/13 11:00:08;;;;;;;600.97;479.92;;;46.20;21.90;;;;;;5443719;26;20017;-71
2024/04/13 11:02:37;;;;;;;614.95;470.40;;;45.60;21.90;;;;;;5446441;25;20456;-72
2024/04/13 11:05:10;;;;;;;617.67;453.35;;;45.00;22.10;;;;;;5458615;26;20094;-72
2024/04/13 11:07:39;;;;;;;793.60;487.13;;;44.40;22.10;;;;;;5440291;26;20025;-72
2024/04/13 11:10:11;;;;;;;591.97;399.85;;;43.40;22.20;;;;;;5431811;26;20002;-71
2024/04/13 11:12:42;;;;;;;637.90;398.60;;;42.00;22.50;;;;;;5439594;25;20459;-72
2024/04/13 11:15:13;;;;;;;609.28;371.65;;;40.60;23.10;;;;;;5441669;26;20010;-74
2024/04/13 11:17:42;;;;;;;775.13;418.40;;;39.00;23.70;;;;;;5464495;25;20010;-71
2024/04/13 11:20:13;;;;;;;628.70;353.80;;;37.40;24.30;;;;;;5437163;26;20048;-73
2024/04/13 11:22:42;;;;;;;605.95;324.83;;;36.00;24.90;;;;;;5469836;25;19993;-71
2024/04/13 11:25:15;;;;;;;622.90;324.13;;;34.70;25.60;;;;;;5419961;26;20026;-72
2024/04/13 11:27:48;;;;;;;;;;;33.80;26.40;;;;;;5437144;25;20094;-70
2024/04/13 11:30:21;;;;;;;608.42;281.65;;;32.90;26.50;;;;;;5469683;25;19932;-74
2024/04/13 11:32:50;;;;;;;591.95;276.55;;;32.20;27.00;;;;;;5447800;25;20027;-72
2024/04/13 11:35:21;;;;;;;595.60;267.55;;;31.70;27.30;;;;;;5452144;26;20473;-76
2024/04/13 11:37:58;;;;;;;779.47;340.45;;;31.30;27.60;;;;;;5434809;25;20592;-71
2024/04/13 11:40:37;;;;;;;583.17;254.75;;;30.90;27.90;;;;;;5432217;25;20023;-71
2024/04/13 11:43:12;;;;;;;587.70;267.23;;;30.70;28.00;;;;;;5445493;26;20001;-69
2024/04/13 11:45:44;;;;;;;757.72;311.35;;;30.40;28.20;;;;;;5474524;25;20070;-75
2024/04/13 11:48:13;;;;;;;604.53;244.30;;;30.20;28.30;;;;;;5440901;26;19998;-74
2024/04/13 11:50:44;;;;;;;594.78;244.98;;;30.00;28.30;;;;;;5441740;25;20021;-71
2024/04/13 11:53:13;;;;;;;643.80;263.98;;;29.90;28.50;;;;;;5474261;25;19997;-71
2024/04/13 11:55:45;;;;;;;733.50;282.27;;;29.80;28.60;;;;;;5414932;25;20005;-70
2024/04/13 11:58:22;;;;;;;576.58;238.07;;;29.70;28.70;;;;;;5453506;25;20082;-71
2024/04/13 12:00:54;;;;;;;639.33;245.13;;;29.60;28.70;;;;;;5457573;25;20040;-77
2024/04/13 12:03:22;;;;;;;570.22;233.27;;;29.60;28.80;;;;;;5450209;25;20010;-74
2024/04/13 12:05:53;;;;;;;693.00;280.20;;;29.60;28.90;;;;;;5459834;25;20074;-71
2024/04/13 12:08:25;;;;;;;602.92;231.40;;;29.60;28.90;;;;;;5466466;25;20014;-74
2024/04/13 12:10:57;;;;;;;577.83;225.23;;;29.60;29.00;;;;;;5468997;25;20016;-75
2024/04/13 12:13:28;;;;;;;639.53;246.32;;;29.50;28.90;;;;;;5460792;25;20073;-71
2024/04/13 12:15:59;;;;;;;610.25;245.30;;;29.50;29.00;;;;;;5441515;26;20083;-72
2024/04/13 12:18:27;;;;;;;661.78;254.75;;;29.50;29.00;;;;;;5419868;26;20418;-70
2024/04/13 12:20:58;;;;;;;567.35;221.77;;;29.50;29.10;;;;;;5418863;26;22000;-74
2024/04/13 12:23:27;;;;;;;571.47;219.13;;;29.50;29.10;;;;;;5452344;25;20014;-76
2024/04/13 12:25:58;;;;;;;627.72;266.17;;;29.40;29.10;;;;;;5443777;26;20002;-71